Terminal Aerodrome Forecast
Issued by NWS Sterling, VA

Current Version | Previous Version | Text Only | Print | Product List | Glossary Off
Versions: 1 2 3 4 5 6 7 8 9 10 11 12 13 14 15 16 17 18 19 20 21 22 23 24 25 26 27 28

412
FTUS41 KLWX 211722
TAFIAD
TAF
KIAD 211722Z 2118/2224 14005KT P6SM SCT060 SCT200
     FM220800 16004KT P6SM VCSH OVC015
     FM221100 16004KT P6SM VCSH OVC010
     FM221400 17004KT P6SM VCSH BKN025 BKN200
     FM221800 19005KT P6SM -SHRA BKN050 BKN200=

USA.gov is the U.S. government's official web portal to all federal, state and local government web resources and services.